Time;durP1;ratioP1;P1;durP2;ratioP2;P2;SDS_P1;SDS_P2;PMS_P1;PMS_P2;Temp;Humidity;BMP_temperature;BMP_pressure;BME280_temperature;BME280_humidity;BME280_pressure;Samples;Min_cycle;Max_cycle;Signal;HPM_P1;HPM_P2
2021/09/27 00:00:50;;;;;;;13.32;11.23;;;;;;;15.59;100.00;101212.03;5088767;28;20072;-75
2021/09/27 00:03:16;;;;;;;14.88;12.93;;;;;;;15.60;100.00;101211.84;5072557;28;20427;-74
2021/09/27 00:05:41;;;;;;;16.77;11.82;;;;;;;15.61;100.00;101200.03;5071548;28;20028;-75
2021/09/27 00:08:08;;;;;;;16.75;12.43;;;;;;;15.57;100.00;101195.25;5089988;28;20057;-75
2021/09/27 00:10:47;;;;;;;19.45;14.00;;;;;;;15.53;100.00;101200.16;5089369;28;20024;-75
2021/09/27 00:13:13;;;;;;;16.95;12.38;;;;;;;15.53;100.00;101200.16;5090292;28;20058;-74
2021/09/27 00:15:43;;;;;;;15.38;13.02;;;;;;;15.53;100.00;101199.31;5071680;28;20370;-75
2021/09/27 00:18:10;;;;;;;16.92;13.27;;;;;;;15.50;100.00;101197.84;5089753;28;20043;-74
2021/09/27 00:20:45;;;;;;;15.88;12.45;;;;;;;15.51;100.00;101204.03;5088496;28;20027;-74
2021/09/27 00:23:11;;;;;;;18.50;13.23;;;;;;;15.49;100.00;101193.44;5088271;28;20067;-74
2021/09/27 00:25:38;;;;;;;15.77;12.18;;;;;;;15.45;100.00;101194.84;5088264;28;20338;-74
2021/09/27 00:28:04;;;;;;;15.25;11.98;;;;;;;15.45;100.00;101196.69;5089689;28;20051;-75
2021/09/27 00:30:30;;;;;;;17.83;12.38;;;;;;;15.40;100.00;101192.72;5088380;28;20032;-75
2021/09/27 00:32:56;;;;;;;15.15;12.48;;;;;;;15.37;100.00;101184.16;5071783;28;20068;-74
2021/09/27 00:35:25;;;;;;;14.63;10.80;;;;;;;15.41;100.00;101196.25;5089531;28;20504;-75
2021/09/27 00:37:51;;;;;;;14.88;12.68;;;;;;;15.39;100.00;101192.91;5088274;28;20092;-74
2021/09/27 00:40:22;;;;;;;13.85;11.82;;;;;;;15.40;100.00;101191.88;5089097;28;20032;-75
2021/09/27 00:42:48;;;;;;;19.67;14.45;;;;;;;15.39;100.00;101188.34;5089580;28;20102;-74
2021/09/27 00:45:18;;;;;;;16.77;12.65;;;;;;;15.44;100.00;101189.66;5089209;28;20369;-75
2021/09/27 00:47:43;;;;;;;15.82;12.55;;;;;;;15.48;100.00;101186.41;5088957;28;20046;-74
2021/09/27 00:50:11;;;;;;;22.43;13.67;;;;;;;15.55;100.00;101187.34;5071282;28;20028;-75
2021/09/27 00:52:38;;;;;;;18.42;15.25;;;;;;;15.61;100.00;101186.59;5071076;28;20130;-75
2021/09/27 00:55:07;;;;;;;19.35;15.25;;;;;;;15.70;100.00;101192.75;5088037;28;20444;-75
2021/09/27 00:57:32;;;;;;;18.27;14.32;;;;;;;15.75;100.00;101184.13;5088922;28;20488;-75
2021/09/27 00:59:58;;;;;;;19.03;13.90;;;;;;;15.78;100.00;101178.38;5088985;28;20032;-75
2021/09/27 01:02:25;;;;;;;21.15;15.15;;;;;;;15.78;100.00;101176.53;5087843;28;20304;-74
2021/09/27 01:04:53;;;;;;;18.73;15.00;;;;;;;15.75;100.00;101168.81;5087317;28;20141;-75
2021/09/27 01:07:37;;;;;;;21.25;14.10;;;;;;;15.79;100.00;101174.66;5088653;28;20480;-75
2021/09/27 01:10:27;;;;;;;20.05;16.05;;;;;;;15.73;100.00;101181.66;5087155;28;20472;-75
2021/09/27 01:13:13;;;;;;;19.45;15.02;;;;;;;15.71;100.00;101188.22;5071049;28;20468;-74
2021/09/27 01:16:02;;;;;;;17.95;14.48;;;;;;;15.73;100.00;101188.84;5070861;28;20449;-74
2021/09/27 01:18:54;;;;;;;21.63;16.50;;;;;;;15.74;100.00;101177.91;5087538;28;20533;-74
2021/09/27 01:21:26;;;;;;;22.40;16.27;;;;;;;15.77;100.00;101179.41;5088060;28;20081;-75
2021/09/27 01:24:19;;;;;;;24.50;17.17;;;;;;;15.79;100.00;101177.34;5088672;28;20036;-74
2021/09/27 01:27:08;;;;;;;20.30;16.17;;;;;;;15.81;100.00;101183.41;5088761;28;20120;-74
2021/09/27 01:29:48;;;;;;;22.52;19.20;;;;;;;15.79;100.00;101183.56;5089116;28;20040;-74
2021/09/27 01:32:19;;;;;;;22.48;18.17;;;;;;;15.72;100.00;101179.13;5089680;28;20077;-74
2021/09/27 01:35:08;;;;;;;22.08;17.85;;;;;;;15.71;100.00;101188.22;5087223;28;20051;-74
2021/09/27 01:38:10;;;;;;;24.85;18.17;;;;;;;15.75;100.00;101176.06;5089469;28;20555;-74
2021/09/27 01:41:09;;;;;;;26.20;19.88;;;;;;;15.71;100.00;101175.59;5087974;28;20353;-74
2021/09/27 01:44:05;;;;;;;27.67;20.30;;;;;;;15.61;100.00;101162.38;5070581;28;20493;-74
2021/09/27 01:46:30;;;;;;;21.30;17.15;;;;;;;15.71;100.00;101188.22;5088309;28;20043;-74
2021/09/27 01:49:11;;;;;;;21.50;17.13;;;;;;;15.73;100.00;101188.84;5087896;28;20039;-74
2021/09/27 01:51:56;;;;;;;23.17;18.45;;;;;;;15.68;100.00;101180.47;5089298;28;20468;-74
2021/09/27 01:54:48;;;;;;;22.00;16.83;;;;;;;15.62;100.00;101164.06;5088684;28;20032;-74
2021/09/27 01:57:25;;;;;;;26.52;19.95;;;;;;;15.63;100.00;101179.16;5089061;28;20441;-74
2021/09/27 02:00:14;;;;;;;24.20;18.60;;;;;;;15.58;100.00;101181.59;5087468;28;20042;-74
2021/09/27 02:03:10;;;;;;;21.75;17.08;;;;;;;15.65;100.00;101186.25;5088950;28;20126;-75
2021/09/27 02:05:59;;;;;;;22.23;17.77;;;;;;;15.66;100.00;101191.41;5070351;28;20044;-74
2021/09/27 02:08:35;;;;;;;23.10;18.10;;;;;;;15.65;100.00;101194.31;5088890;28;20028;-74
2021/09/27 02:11:06;;;;;;;28.33;18.60;;;;;;;15.61;100.00;101197.34;5088298;28;20050;-74
2021/09/27 02:13:41;;;;;;;20.80;17.08;;;;;;;15.62;100.00;101193.66;5088006;28;20489;-74
2021/09/27 02:16:23;;;;;;;20.58;16.27;;;;;;;15.67;100.00;101200.34;5088748;28;20067;-74
2021/09/27 02:19:15;;;;;;;24.63;18.08;;;;;;;15.68;100.00;101207.41;5088568;28;20055;-74
2021/09/27 02:21:45;;;;;;;23.67;18.83;;;;;;;15.66;100.00;101185.22;5056742;28;20048;-74
2021/09/27 02:24:17;;;;;;;25.73;18.25;;;;;;;15.59;100.00;101182.41;5087934;28;20051;-74
2021/09/27 02:26:48;;;;;;;24.08;18.58;;;;;;;15.57;100.00;101174.53;5088343;28;20078;-74
2021/09/27 02:29:14;;;;;;;27.02;19.25;;;;;;;15.55;100.00;101181.97;5087366;28;20451;-74
2021/09/27 02:31:56;;;;;;;24.75;18.65;;;;;;;15.57;100.00;101169.16;5088450;28;20032;-74
2021/09/27 02:34:33;;;;;;;26.02;18.98;;;;;;;15.56;100.00;101172.03;5088467;28;20145;-74
2021/09/27 02:37:07;;;;;;;23.73;16.95;;;;;;;15.58;100.00;101180.75;5087185;28;20076;-74
2021/09/27 02:39:48;;;;;;;30.15;18.80;;;;;;;15.54;100.00;101169.50;5087354;28;20540;-74
2021/09/27 02:42:39;;;;;;;20.23;16.83;;;;;;;15.52;100.00;101176.09;5087397;28;20040;-74
2021/09/27 02:45:06;;;;;;;27.40;18.20;;;;;;;15.46;100.00;101166.94;5087314;28;20399;-74
2021/09/27 02:47:46;;;;;;;27.92;17.83;;;;;;;15.44;100.00;101170.81;5087082;28;20043;-74
2021/09/27 02:50:14;;;;;;;25.75;18.23;;;;;;;15.43;100.00;101172.69;5087324;28;20092;-73
2021/09/27 02:52:40;;;;;;;22.23;18.33;;;;;;;15.43;100.00;101177.22;5087208;28;20046;-74
2021/09/27 02:55:11;;;;;;;23.65;18.50;;;;;;;15.46;100.00;101188.44;5087311;28;20027;-74
2021/09/27 02:57:45;;;;;;;26.92;19.33;;;;;;;15.49;100.00;101192.63;5087103;28;20028;-74
2021/09/27 03:00:20;;;;;;;25.17;19.27;;;;;;;15.48;100.00;101186.41;5087007;28;20040;-75
2021/09/27 03:03:08;;;;;;;28.00;19.58;;;;;;;15.50;100.00;101184.38;5088112;28;20035;-74
2021/09/27 03:06:00;;;;;;;24.45;18.33;;;;;;;15.46;100.00;101177.69;5069568;28;20028;-74
2021/09/27 03:08:52;;;;;;;26.92;20.23;;;;;;;15.48;100.00;101181.03;5070143;28;20104;-74
2021/09/27 03:11:37;;;;;;;27.02;19.60;;;;;;;15.45;100.00;101170.63;5088169;28;20050;-74
2021/09/27 03:14:41;;;;;;;25.75;19.10;;;;;;;15.50;100.00;101180.84;5087894;28;20454;-74
2021/09/27 03:17:20;;;;;;;27.50;19.85;;;;;;;15.51;100.00;101175.28;5070153;28;20051;-74
2021/09/27 03:20:07;;;;;;;28.95;21.95;;;;;;;15.53;100.00;101177.78;5087691;28;20063;-74
2021/09/27 03:23:01;;;;;;;24.13;18.48;;;;;;;15.58;100.00;101176.22;5087348;28;20052;-74
2021/09/27 03:25:47;;;;;;;25.95;20.00;;;;;;;15.54;100.00;101169.50;5069989;28;20489;-74
2021/09/27 03:28:24;;;;;;;31.80;21.70;;;;;;;15.52;100.00;101155.44;5087673;28;20039;-74
2021/09/27 03:31:06;;;;;;;29.88;21.13;;;;;;;15.51;100.00;101153.75;5087822;28;20040;-74
2021/09/27 03:34:09;;;;;;;31.63;22.48;;;;;;;15.52;100.00;101147.38;5086896;28;20564;-74
2021/09/27 03:36:56;;;;;;;26.77;18.83;;;;;;;15.43;100.00;101135.03;5086882;28;20046;-74
2021/09/27 03:39:33;;;;;;;28.02;20.75;;;;;;;15.47;100.00;101151.63;5087197;28;20032;-74
2021/09/27 03:42:07;;;;;;;26.52;19.85;;;;;;;15.49;100.00;101154.97;5053411;28;20036;-75
2021/09/27 03:44:48;;;;;;;26.50;20.50;;;;;;;15.49;100.00;101155.78;5087509;28;20464;-74
2021/09/27 03:47:35;;;;;;;24.38;18.95;;;;;;;15.51;100.00;101159.13;5070091;28;20082;-74
2021/09/27 03:50:17;;;;;;;25.15;17.85;;;;;;;15.54;100.00;101157.91;5086367;28;20040;-75
2021/09/27 03:52:56;;;;;;;24.30;17.10;;;;;;;15.56;100.00;101151.34;5087078;28;20036;-74
2021/09/27 03:55:42;;;;;;;29.33;20.40;;;;;;;15.56;100.00;101164.78;5069497;28;20343;-74
2021/09/27 03:58:13;;;;;;;30.80;22.15;;;;;;;15.52;100.00;101176.09;5070503;28;20432;-74
2021/09/27 04:00:48;;;;;;;30.70;21.10;;;;;;;15.55;100.00;101183.84;5089939;28;20039;-74
2021/09/27 04:04:10;;;;;;;30.02;22.00;;;;;;;15.56;100.00;101191.69;5091307;28;20036;-74
2021/09/27 04:06:50;;;;;;;32.65;21.52;;;;;;;15.49;100.00;101174.63;5008193;28;20270;-75
2021/09/27 04:09:28;;;;;;;36.13;25.05;;;;;;;15.43;100.00;101191.53;5072508;28;20035;-75
2021/09/27 04:12:05;;;;;;;40.00;27.58;;;;;;;15.34;100.00;101211.44;5091000;28;20039;-75
2021/09/27 04:14:46;;;;;;;48.17;29.08;;;;;;;15.35;100.00;101234.63;5073309;28;20047;-75
2021/09/27 04:17:37;;;;;;;46.92;29.45;;;;;;;15.36;100.00;101237.16;5090987;28;20566;-80
2021/09/27 04:20:13;;;;;;;50.72;31.95;;;;;;;15.29;100.00;101227.28;5074784;28;20490;-79
2021/09/27 04:22:45;;;;;;;46.92;30.02;;;;;;;15.34;100.00;101222.22;5092228;28;20487;-80
2021/09/27 04:25:21;;;;;;;60.22;34.00;;;;;;;15.29;100.00;101212.00;5074947;28;20353;-80
2021/09/27 04:28:22;;;;;;;51.30;32.55;;;;;;;15.33;100.00;101210.59;5073289;28;20050;-79
2021/09/27 04:31:04;;;;;;;50.08;33.30;;;;;;;15.33;100.00;101193.63;5051711;28;20048;-83
2021/09/27 04:33:29;;;;;;;46.88;31.35;;;;;;;15.41;100.00;101201.63;5074865;28;20097;-82
2021/09/27 04:36:25;;;;;;;51.40;32.73;;;;;;;15.40;100.00;101216.06;5090070;28;20147;-79
2021/09/27 04:38:56;;;;;;;80.80;40.90;;;;;;;15.41;100.00;101201.63;5089761;28;20036;-78
2021/09/27 04:41:36;;;;;;;57.03;36.60;;;;;;;15.41;100.00;101201.63;5091299;28;20040;-77
2021/09/27 04:44:10;;;;;;;57.97;36.13;;;;;;;15.45;100.00;101200.22;5072784;28;20131;-75
2021/09/27 04:47:15;;;;;;;65.60;37.97;;;;;;;15.43;100.00;101194.22;5090279;28;20075;-75
2021/09/27 04:49:54;;;;;;;59.05;35.70;;;;;;;15.40;100.00;101168.50;5090220;28;20040;-75
2021/09/27 04:52:34;;;;;;;67.18;38.65;;;;;;;15.45;100.00;101169.78;5089396;28;20032;-75
2021/09/27 04:55:08;;;;;;;71.00;41.13;;;;;;;15.39;100.00;101160.63;5090323;28;20040;-76
2021/09/27 04:57:50;;;;;;;72.50;39.28;;;;;;;15.38;100.00;101161.63;5089770;28;20032;-81
2021/09/27 05:00:21;;;;;;;65.88;35.60;;;;;;;15.39;100.00;101158.75;5090809;28;20039;-81
2021/09/27 05:03:15;;;;;;;73.43;39.45;;;;;;;15.40;100.00;101154.19;5089901;28;20147;-81
2021/09/27 05:06:02;;;;;;;110.50;45.10;;;;;;;15.40;100.00;101152.38;5089339;28;20125;-81
2021/09/27 05:09:05;;;;;;;65.45;37.65;;;;;;;15.38;100.00;101149.03;5090647;28;20134;-81
2021/09/27 05:12:03;;;;;;;87.97;42.78;;;;;;;15.37;100.00;101138.44;5073015;28;20032;-81
2021/09/27 05:14:34;;;;;;;81.97;40.80;;;;;;;15.35;100.00;101133.22;5072803;28;20435;-78
2021/09/27 05:17:30;;;;;;;71.63;38.67;;;;;;;15.31;100.00;101126.56;5089515;28;20118;-81
2021/09/27 05:20:26;;;;;;;80.30;41.17;;;;;;;15.29;100.00;101135.81;5090349;28;20035;-81
2021/09/27 05:23:13;;;;;;;93.65;43.58;;;;;;;15.27;100.00;101130.63;5072780;28;20453;-79
2021/09/27 05:25:55;;;;;;;83.15;42.72;;;;;;;15.31;100.00;101131.09;5090199;28;20122;-80
2021/09/27 05:28:40;;;;;;;123.35;50.65;;;;;;;15.28;100.00;101139.53;5072958;28;20055;-78
2021/09/27 05:31:20;;;;;;;215.82;60.33;;;;;;;15.28;100.00;101147.59;5089763;28;20040;-82
2021/09/27 05:34:23;;;;;;;94.97;44.33;;;;;;;15.26;100.00;101139.72;5089659;28;20047;-82
2021/09/27 05:37:09;;;;;;;68.68;39.30;;;;;;;15.25;100.00;101126.47;5072984;28;20036;-82
2021/09/27 05:39:47;;;;;;;180.48;55.35;;;;;;;15.29;100.00;101127.75;5089438;28;20040;-81
2021/09/27 05:42:35;;;;;;;63.67;34.05;;;;;;;15.34;100.00;101130.75;5090377;28;20050;-79
2021/09/27 05:45:26;;;;;;;78.90;42.38;;;;;;;15.37;100.00;101151.88;5072458;28;20038;-80
2021/09/27 05:47:56;;;;;;;76.75;42.30;;;;;;;15.37;100.00;101162.66;5072211;28;20361;-80
2021/09/27 05:50:40;;;;;;;94.20;45.92;;;;;;;15.37;100.00;101162.66;5088327;28;20039;-80
2021/09/27 05:53:11;;;;;;;85.10;45.25;;;;;;;15.40;100.00;101160.44;5072133;28;20032;-78
2021/09/27 05:55:55;;;;;;;98.35;46.30;;;;;;;15.43;100.00;101161.06;5088522;28;20043;-80
2021/09/27 05:58:46;;;;;;;97.45;49.92;;;;;;;15.41;100.00;101161.25;5090256;28;20512;-80
2021/09/27 06:01:23;;;;;;;93.45;48.95;;;;;;;15.41;100.00;101161.25;5089545;28;20039;-82
2021/09/27 06:04:13;;;;;;;69.88;41.78;;;;;;;15.45;100.00;101145.56;5089546;28;20104;-79
2021/09/27 06:06:50;;;;;;;94.28;47.80;;;;;;;15.46;100.00;101140.03;5089336;28;20113;-79
2021/09/27 06:10:06;;;;;;;129.10;55.30;;;;;;;15.45;100.00;101157.16;5088033;28;20105;-79
2021/09/27 06:13:17;;;;;;;97.85;49.72;;;;;;;15.39;100.00;101180.28;5092341;28;20090;-84
2021/09/27 06:15:47;;;;;;;110.78;51.15;;;;;;;15.44;100.00;101177.03;5081123;28;20043;-81
2021/09/27 06:18:24;;;;;;;105.38;50.97;;;;;;;15.49;100.00;101161.16;5072106;28;20047;-76
2021/09/27 06:21:23;;;;;;;106.97;52.17;;;;;;;15.48;100.00;101181.03;5087312;28;20032;-73
2021/09/27 06:23:52;;;;;;;98.75;49.30;;;;;;;15.46;100.00;101179.56;5071315;28;20036;-79
2021/09/27 06:26:20;;;;;;;88.63;49.35;;;;;;;15.49;100.00;101188.06;5088628;28;20036;-78
2021/09/27 06:29:18;;;;;;;85.65;46.00;;;;;;;15.47;100.00;101178.53;5089691;28;20119;-86
2021/09/27 06:31:52;;;;;;;84.38;44.42;;;;;;;15.55;100.00;101181.97;5090527;28;20122;-81
2021/09/27 06:34:34;;;;;;;66.78;39.90;;;;;;;15.55;100.00;101173.06;5071887;28;20123;-81
2021/09/27 06:37:01;;;;;;;72.85;41.88;;;;;;;15.61;100.00;101181.22;5087157;28;20052;-73
2021/09/27 06:39:29;;;;;;;80.78;42.25;;;;;;;15.58;100.00;101181.59;5087563;28;20051;-72
2021/09/27 06:41:56;;;;;;;75.93;40.95;;;;;;;15.57;100.00;101179.94;5087313;28;20032;-72
2021/09/27 06:44:23;;;;;;;78.97;44.33;;;;;;;15.59;100.00;101177.91;5088404;28;20091;-72
2021/09/27 06:46:54;;;;;;;82.13;44.08;;;;;;;15.62;100.00;101179.38;5087020;28;20414;-72
2021/09/27 06:49:19;;;;;;;90.90;46.70;;;;;;;15.65;100.00;101178.16;5088434;28;20024;-72
2021/09/27 06:51:45;;;;;;;85.47;47.28;;;;;;;15.65;100.00;101170.09;5088362;28;20016;-72
2021/09/27 06:54:13;;;;;;;97.03;47.95;;;;;;;15.70;100.00;101173.06;5087417;28;20040;-72
2021/09/27 06:56:39;;;;;;;83.85;46.22;;;;;;;15.71;100.00;101170.22;5087268;28;20465;-72
2021/09/27 06:59:05;;;;;;;91.88;48.38;;;;;;;15.72;100.00;101171.06;5086649;28;20048;-73
2021/09/27 07:01:31;;;;;;;106.57;52.70;;;;;;;15.71;100.00;101167.53;5069523;28;20032;-72
2021/09/27 07:03:56;;;;;;;97.50;51.37;;;;;;;15.76;100.00;101183.13;5069097;28;20456;-72
2021/09/27 07:06:22;;;;;;;108.10;53.43;;;;;;;15.81;100.00;101191.47;5085557;28;20444;-72
2021/09/27 07:08:47;;;;;;;110.70;53.63;;;;;;;15.81;100.00;101186.09;5068671;28;20429;-73
2021/09/27 07:11:14;;;;;;;105.33;51.63;;;;;;;15.83;100.00;101184.06;5086040;28;20036;-74
2021/09/27 07:13:40;;;;;;;109.82;56.97;;;;;;;15.82;100.00;101179.66;5086992;28;20034;-72
2021/09/27 07:16:06;;;;;;;111.70;56.63;;;;;;;15.78;100.00;101183.75;5069101;28;20036;-73
2021/09/27 07:18:32;;;;;;;;;;;;;;;15.77;100.00;101187.47;5086073;28;20055;-72
2021/09/27 07:20:59;;;;;;;;;;;;;;;15.82;100.00;101185.88;5087389;28;19916;-71
2021/09/27 07:23:24;;;;;;;;;;;;;;;15.84;100.00;101185.72;5087206;28;19912;-72
2021/09/27 07:25:50;;;;;;;;;;;;;;;15.81;100.00;101180.72;5088370;28;20256;-72
2021/09/27 07:28:15;;;;;;;;;;;;;;;15.75;100.00;101184.97;5088545;28;19908;-72
2021/09/27 07:30:41;;;;;;;118.37;56.37;;;;;;;15.81;100.00;101180.72;5087560;28;19922;-73
2021/09/27 07:33:06;;;;;;;119.43;56.13;;;;;;;15.83;100.00;101184.06;5071080;28;20804;-72
2021/09/27 07:35:32;;;;;;;108.63;54.73;;;;;;;15.84;100.00;101180.31;5091512;28;20031;-71
2021/09/27 07:37:58;;;;;;;104.13;54.53;;;;;;;15.90;100.00;101182.28;5090793;28;20050;-71
2021/09/27 07:40:28;;;;;;;112.95;54.83;;;;;;;15.91;100.00;101175.84;5089870;28;20047;-72
2021/09/27 07:42:54;;;;;;;106.75;52.90;;;;;;;15.97;100.00;101183.19;5091848;28;20089;-71
2021/09/27 07:45:21;;;;;;;104.88;52.80;;;;;;;16.02;100.00;101180.78;5091295;28;20054;-71
2021/09/27 07:47:47;;;;;;;102.07;50.28;;;;;;;15.99;100.00;101181.16;5091615;28;20050;-71
2021/09/27 07:50:13;;;;;;;89.35;47.20;;;;;;;16.02;100.00;101178.09;5090969;28;20149;-71
2021/09/27 07:52:38;;;;;;;77.75;45.83;;;;;;;16.02;100.00;101175.38;5091535;28;20036;-71
2021/09/27 07:55:07;;;;;;;87.80;47.70;;;;;;;16.08;100.00;101167.56;5090310;28;20565;-72
2021/09/27 07:57:32;;;;;;;87.13;47.85;;;;;;;15.97;100.00;101167.03;5091487;28;20101;-72
2021/09/27 07:59:58;;;;;;;81.67;44.20;;;;;;;15.88;100.00;101160.09;5090095;28;20048;-72
2021/09/27 08:02:28;;;;;;;93.85;48.20;;;;;;;15.86;100.00;101164.81;5091303;28;20035;-72
2021/09/27 08:04:54;;;;;;;81.72;45.30;;;;;;;15.84;100.00;101164.16;5090707;28;20031;-72
2021/09/27 08:07:21;;;;;;;88.18;47.10;;;;;;;15.84;100.00;101164.16;5091044;28;20448;-72
2021/09/27 08:09:46;;;;;;;;;;;;;;;15.93;100.00;101173.81;5090321;28;20039;-73
2021/09/27 08:12:12;;;;;;;76.65;42.72;;;;;;;15.98;100.00;101174.09;5091056;28;19912;-72
2021/09/27 08:14:38;;;;;;;79.40;42.83;;;;;;;15.97;100.00;101172.44;5091064;28;20468;-72
2021/09/27 08:17:04;;;;;;;75.35;41.55;;;;;;;15.99;100.00;101167.69;5090760;28;20019;-72
2021/09/27 08:19:30;;;;;;;73.93;41.55;;;;;;;16.07;100.00;101163.22;5090772;28;20032;-73
2021/09/27 08:21:55;;;;;;;77.85;40.85;;;;;;;16.18;100.00;101168.13;5073098;28;20047;-72
2021/09/27 08:24:21;;;;;;;71.30;42.20;;;;;;;16.33;100.00;101168.91;5090880;28;20032;-73
2021/09/27 08:26:47;;;;;;;65.93;37.93;;;;;;;16.27;100.00;101166.97;5072755;28;20035;-73
2021/09/27 08:29:13;;;;;;;65.25;38.38;;;;;;;16.32;100.00;101153.78;5090737;28;20020;-73
2021/09/27 08:31:40;;;;;;;65.43;39.20;;;;;;;16.39;100.00;101157.38;5090706;28;20119;-73
2021/09/27 08:34:07;;;;;;;66.90;40.00;;;;;;;16.35;100.00;101156.09;5090566;28;20063;-73
2021/09/27 08:36:32;;;;;;;;;;;;;;;16.42;100.00;101156.16;5091107;28;20032;-73
2021/09/27 08:38:58;;;;;;;;;;;;;;;16.41;100.00;101144.56;5090781;28;19981;-73
2021/09/27 08:41:40;;;;;;;55.80;34.70;;;;;;;16.36;100.00;101141.56;5090840;28;20351;-73
2021/09/27 08:44:21;;;;;;;56.45;35.55;;;;;;;16.55;100.00;101141.97;5089931;28;20062;-73
2021/09/27 08:46:55;;;;;;;53.45;35.25;;;;;;;16.61;100.00;101149.31;5090570;28;20051;-73
2021/09/27 08:49:53;;;;;;;54.90;34.20;;;;;;;16.51;100.00;101143.41;5089982;28;20061;-74
2021/09/27 08:52:21;;;;;;;49.33;32.78;;;;;;;16.45;100.00;101148.50;5072871;28;20039;-74
2021/09/27 08:54:51;;;;;;;57.30;34.80;;;;;;;16.40;100.00;101145.56;5089003;28;20028;-74
2021/09/27 08:57:26;;;;;;;54.33;34.65;;;;;;;16.35;100.00;101148.00;5090353;28;20400;-74
2021/09/27 09:00:04;;;;;;;46.85;33.22;;;;;;;16.49;100.00;101150.84;5088805;28;20040;-74
2021/09/27 09:02:55;;;;;;;52.80;35.25;;;;;;;16.57;100.00;101148.84;5089483;28;20035;-74
2021/09/27 09:05:36;;;;;;;48.85;33.40;;;;;;;16.40;100.00;101148.25;5089689;28;20059;-74
2021/09/27 09:08:18;;;;;;;58.00;36.38;;;;;;;16.38;100.00;101149.47;5090182;28;20107;-74
2021/09/27 09:10:56;;;;;;;53.47;34.90;;;;;;;16.38;100.00;101154.88;5089193;28;20350;-73
2021/09/27 09:13:32;;;;;;;53.33;33.80;;;;;;;16.47;100.00;101153.72;5090015;28;20117;-74
2021/09/27 09:16:02;;;;;;;;;;;;;;;16.37;100.00;101148.66;5090071;28;20466;-74
2021/09/27 09:18:35;;;;;;;59.83;37.40;;;;;;;16.44;100.00;101144.16;5089959;28;20736;-73
2021/09/27 09:21:07;;;;;;;64.20;37.17;;;;;;;16.50;100.00;101152.50;5088290;28;20047;-73
2021/09/27 09:23:36;;;;;;;58.58;38.92;;;;;;;16.44;100.00;101154.94;5089748;28;20035;-74
2021/09/27 09:26:12;;;;;;;60.22;37.30;;;;;;;16.50;100.00;101165.97;5089246;28;20036;-73
2021/09/27 09:28:38;;;;;;;67.28;39.65;;;;;;;16.58;100.00;101161.31;5071796;28;20035;-74
2021/09/27 09:31:12;;;;;;;;;;;;;;;16.75;100.00;101164.59;5088340;28;20036;-74
2021/09/27 09:33:49;;;;;;;61.40;38.78;;;;;;;16.70;100.00;101152.72;5088634;28;19919;-74
2021/09/27 09:36:32;;;;;;;55.88;36.67;;;;;;;16.73;100.00;101161.25;5088877;28;20039;-73
2021/09/27 09:38:59;;;;;;;61.70;37.95;;;;;;;16.76;100.00;101151.94;5088159;28;20093;-74
2021/09/27 09:41:51;;;;;;;66.00;40.40;;;;;;;16.81;100.00;101149.50;5088094;28;20051;-73
2021/09/27 09:44:24;;;;;;;65.70;41.10;;;;;;;16.68;100.00;101150.19;5089256;28;20060;-73
2021/09/27 09:47:20;;;;;;;62.08;40.40;;;;;;;16.72;100.00;101140.72;5088045;28;20241;-73
2021/09/27 09:50:01;;;;;;;67.63;41.13;;;;;;;16.82;100.00;101157.41;5089016;28;20029;-73
2021/09/27 09:52:43;;;;;;;66.40;40.38;;;;;;;16.84;100.00;101143.75;5086892;28;20053;-73
2021/09/27 09:55:38;;;;;;;63.17;41.05;;;;;;;16.80;100.00;101132.50;5087318;28;20488;-73
2021/09/27 09:58:09;;;;;;;64.80;41.95;;;;;;;16.85;100.00;101145.41;5080262;28;20075;-73
2021/09/27 10:00:52;;;;;;;69.68;42.63;;;;;;;16.92;100.00;101140.06;5087117;28;20115;-73
2021/09/27 10:03:28;;;;;;;65.57;41.75;;;;;;;16.99;100.00;101127.47;5087216;28;20478;-73
2021/09/27 10:05:55;;;;;;;;;;;;;;;17.11;100.00;101141.25;5069845;28;20040;-73
2021/09/27 10:08:25;;;;;;;63.30;39.03;;;;;;;17.11;100.00;101135.88;5088395;28;20252;-73
2021/09/27 10:11:14;;;;;;;68.18;41.67;;;;;;;17.14;100.00;101117.44;5086989;28;20035;-73
2021/09/27 10:13:52;;;;;;;60.80;40.63;;;;;;;17.46;100.00;101121.34;5088714;28;20031;-73
2021/09/27 10:16:40;;;;;;;57.67;39.45;;;;;;;17.34;100.00;101119.41;5070844;28;20055;-73
2021/09/27 10:19:26;;;;;;;60.47;38.65;;;;;;;17.37;100.00;101116.31;5088018;28;20131;-73
2021/09/27 10:21:54;;;;;;;;;;;;;;;17.30;100.00;101110.88;5088781;28;20122;-73
2021/09/27 10:24:28;;;;;;;58.65;37.42;;;;;;;17.26;100.00;101107.75;5087863;28;19908;-73
2021/09/27 10:26:54;;;;;;;60.72;37.08;;;;;;;17.11;100.00;101117.81;5087318;28;20036;-73
2021/09/27 10:29:30;;;;;;;66.67;39.90;;;;;;;16.97;100.00;101111.47;5070367;28;20393;-73
2021/09/27 10:32:00;;;;;;;69.00;41.25;;;;;;;17.00;100.00;101118.38;5088658;28;20039;-73
2021/09/27 10:34:32;;;;;;;63.13;40.97;;;;;;;17.01;100.00;101133.50;5070229;28;20039;-73
2021/09/27 10:37:08;;;;;;;74.32;43.55;;;;;;;17.02;100.00;101137.88;5087225;28;20538;-73
2021/09/27 10:39:33;;;;;;;70.85;40.08;;;;;;;17.10;100.00;101140.44;5070178;28;20032;-74
2021/09/27 10:42:04;;;;;;;65.43;40.13;;;;;;;17.33;100.00;101139.34;5088475;28;20374;-73
2021/09/27 10:44:47;;;;;;;60.25;38.30;;;;;;;17.43;100.00;101137.97;5070080;28;20199;-73
2021/09/27 10:47:24;;;;;;;68.22;39.45;;;;;;;18.01;100.00;101123.34;5088477;28;20032;-73
2021/09/27 10:49:55;;;;;;;49.83;33.50;;;;;;;18.59;100.00;101104.75;5087943;28;20043;-73
2021/09/27 10:52:34;;;;;;;50.95;32.85;;;;;;;18.36;100.00;101086.22;5088370;28;20853;-73
2021/09/27 10:55:24;;;;;;;46.22;31.80;;;;;;;18.41;100.00;101091.81;5087869;28;20039;-73
2021/09/27 10:57:55;;;;;;;49.63;32.10;;;;;;;18.06;100.00;101083.84;5087421;28;20039;-73
2021/09/27 11:00:23;;;;;;;49.85;31.20;;;;;;;17.99;100.00;101088.41;5087695;28;20027;-73
2021/09/27 11:02:58;;;;;;;55.70;33.88;;;;;;;18.35;100.00;101084.53;5088349;28;20028;-73
2021/09/27 11:05:45;;;;;;;49.42;33.25;;;;;;;18.05;100.00;101076.78;5087807;28;20548;-73
2021/09/27 11:08:14;;;;;;;56.85;32.28;;;;;;;17.92;100.00;101087.56;5089899;28;20039;-73
2021/09/27 11:10:47;;;;;;;56.03;33.63;;;;;;;18.01;100.00;101088.22;5091453;28;20027;-73
2021/09/27 11:13:34;;;;;;;47.92;32.08;;;;;;;18.08;100.00;101084.47;5074523;28;20047;-73
2021/09/27 11:16:07;;;;;;;46.42;31.35;;;;;;;18.10;100.00;101087.81;5091759;28;20120;-72
2021/09/27 11:18:33;;;;;;;48.80;32.10;;;;;;;18.10;100.00;101081.59;5057970;28;20043;-73
2021/09/27 11:21:02;;;;;;;49.45;29.35;;;;;;;18.21;100.00;101088.25;5073912;28;20021;-73
2021/09/27 11:23:39;;;;;;;43.38;29.48;;;;;;;18.38;100.00;101089.53;5091101;28;20390;-73
2021/09/27 11:26:32;;;;;;;42.92;29.70;;;;;;;18.54;100.00;101089.16;5089896;28;20043;-73
2021/09/27 11:29:27;;;;;;;47.90;32.97;;;;;;;18.32;100.00;101085.78;5090409;28;20027;-69
2021/09/27 11:32:31;;;;;;;43.05;31.70;;;;;;;18.09;100.00;101093.41;5090209;28;20612;-69
2021/09/27 11:35:02;;;;;;;48.67;31.85;;;;;;;18.21;100.00;101091.78;5072413;28;20236;-69
2021/09/27 11:37:56;;;;;;;46.17;31.88;;;;;;;18.35;100.00;101088.09;5089076;28;20546;-69
2021/09/27 11:40:21;;;;;;;42.78;30.38;;;;;;;18.32;100.00;101084.94;5089831;28;20115;-69
2021/09/27 11:43:04;;;;;;;45.23;30.20;;;;;;;18.53;100.00;101078.53;5091346;28;20513;-69
2021/09/27 11:45:31;;;;;;;44.38;29.63;;;;;;;18.61;100.00;101075.59;5091645;28;20312;-69
2021/09/27 11:48:12;;;;;;;40.30;30.02;;;;;;;19.03;100.00;101070.00;5090304;28;20075;-69